sensor_id;sensor_type;location;lat;lon;timestamp;pressure;altitude;pressure_sealevel;temperature;humidity
18755;BME280;35061;47.664;9.166;2023-04-01T00:00:32;100491.45;;;8.14;77.22
18755;BME280;35061;47.664;9.166;2023-04-01T00:03:00;100512.13;;;8.09;77.38
18755;BME280;35061;47.664;9.166;2023-04-01T00:05:28;100501.53;;;8.00;77.41
18755;BME280;35061;47.664;9.166;2023-04-01T00:07:57;100511.86;;;7.98;77.62
18755;BME280;35061;47.664;9.166;2023-04-01T00:10:25;100508.36;;;7.93;77.59
18755;BME280;35061;47.664;9.166;2023-04-01T00:12:53;100499.99;;;7.90;78.38
18755;BME280;35061;47.664;9.166;2023-04-01T00:15:21;100501.76;;;7.87;78.36
18755;BME280;35061;47.664;9.166;2023-04-01T00:17:49;100503.52;;;7.85;78.70
18755;BME280;35061;47.664;9.166;2023-04-01T00:20:17;100517.12;;;7.80;79.51
18755;BME280;35061;47.664;9.166;2023-04-01T00:22:46;100517.81;;;7.75;80.08
18755;BME280;35061;47.664;9.166;2023-04-01T00:25:14;100526.51;;;7.72;80.14
18755;BME280;35061;47.664;9.166;2023-04-01T00:27:42;100534.45;;;7.67;81.80
18755;BME280;35061;47.664;9.166;2023-04-01T00:30:10;100530.37;;;7.59;83.24
18755;BME280;35061;47.664;9.166;2023-04-01T00:32:38;100543.35;;;7.51;84.33
18755;BME280;35061;47.664;9.166;2023-04-01T00:35:07;100540.54;;;7.42;86.88
18755;BME280;35061;47.664;9.166;2023-04-01T00:37:36;100537.89;;;7.29;88.21
18755;BME280;35061;47.664;9.166;2023-04-01T00:42:52;100559.57;;;7.07;89.17
18755;BME280;35061;47.664;9.166;2023-04-01T00:47:54;100566.37;;;6.91;90.45
18755;BME280;35061;47.664;9.166;2023-04-01T00:50:24;100567.02;;;6.86;90.24
18755;BME280;35061;47.664;9.166;2023-04-01T00:52:52;100566.37;;;6.82;90.59
18755;BME280;35061;47.664;9.166;2023-04-01T00:55:21;100569.34;;;6.78;90.51
18755;BME280;35061;47.664;9.166;2023-04-01T00:57:52;100572.84;;;6.73;91.20
18755;BME280;35061;47.664;9.166;2023-04-01T01:00:21;100566.50;;;6.69;91.27
18755;BME280;35061;47.664;9.166;2023-04-01T01:02:50;100550.38;;;6.66;92.04
18755;BME280;35061;47.664;9.166;2023-04-01T01:05:26;100554.63;;;6.61;92.49
18755;BME280;35061;47.664;9.166;2023-04-01T01:11:03;100561.44;;;6.54;92.65
18755;BME280;35061;47.664;9.166;2023-04-01T01:14:01;100554.47;;;6.55;92.59
18755;BME280;35061;47.664;9.166;2023-04-01T01:16:38;100556.37;;;6.49;93.87
18755;BME280;35061;47.664;9.166;2023-04-01T01:22:24;100534.55;;;6.46;93.92
18755;BME280;35061;47.664;9.166;2023-04-01T01:27:26;100542.60;;;6.48;93.53
18755;BME280;35061;47.664;9.166;2023-04-01T01:33:10;100536.13;;;6.47;94.58
18755;BME280;35061;47.664;9.166;2023-04-01T01:35:55;100528.37;;;6.48;94.13
18755;BME280;35061;47.664;9.166;2023-04-01T01:38:27;100528.24;;;6.51;94.17
18755;BME280;35061;47.664;9.166;2023-04-01T01:40:57;100516.54;;;6.49;93.81
18755;BME280;35061;47.664;9.166;2023-04-01T01:43:30;100518.14;;;6.50;93.73
18755;BME280;35061;47.664;9.166;2023-04-01T01:46:02;100519.05;;;6.47;95.00
18755;BME280;35061;47.664;9.166;2023-04-01T01:48:34;100514.48;;;6.50;94.45
18755;BME280;35061;47.664;9.166;2023-04-01T01:51:05;100511.96;;;6.52;94.34
18755;BME280;35061;47.664;9.166;2023-04-01T01:53:34;100511.01;;;6.55;94.21
18755;BME280;35061;47.664;9.166;2023-04-01T01:56:02;100501.69;;;6.54;94.61
18755;BME280;35061;47.664;9.166;2023-04-01T01:58:40;100499.63;;;6.55;94.95
18755;BME280;35061;47.664;9.166;2023-04-01T02:01:15;100492.17;;;6.57;94.64
18755;BME280;35061;47.664;9.166;2023-04-01T02:03:45;100487.76;;;6.56;93.88
18755;BME280;35061;47.664;9.166;2023-04-01T02:06:17;100490.48;;;6.60;93.65
18755;BME280;35061;47.664;9.166;2023-04-01T02:08:53;100492.05;;;6.61;92.92
18755;BME280;35061;47.664;9.166;2023-04-01T02:11:38;100500.88;;;6.63;92.88
18755;BME280;35061;47.664;9.166;2023-04-01T02:14:12;100489.36;;;6.67;92.69
18755;BME280;35061;47.664;9.166;2023-04-01T02:16:47;100470.53;;;6.69;92.36
18755;BME280;35061;47.664;9.166;2023-04-01T02:19:18;100480.80;;;6.67;92.07
18755;BME280;35061;47.664;9.166;2023-04-01T02:21:57;100475.43;;;6.69;91.91
18755;BME280;35061;47.664;9.166;2023-04-01T02:24:28;100483.67;;;6.67;91.19
18755;BME280;35061;47.664;9.166;2023-04-01T02:26:57;100480.80;;;6.67;91.07
18755;BME280;35061;47.664;9.166;2023-04-01T02:29:26;100482.73;;;6.70;90.86
18755;BME280;35061;47.664;9.166;2023-04-01T02:31:55;100484.30;;;6.71;90.39
18755;BME280;35061;47.664;9.166;2023-04-01T02:34:24;100487.01;;;6.75;89.58
18755;BME280;35061;47.664;9.166;2023-04-01T02:36:53;100492.99;;;6.77;89.80
18755;BME280;35061;47.664;9.166;2023-04-01T02:39:22;100494.07;;;6.79;89.63
18755;BME280;35061;47.664;9.166;2023-04-01T02:41:51;100483.80;;;6.82;89.79
18755;BME280;35061;47.664;9.166;2023-04-01T02:44:19;100484.63;;;6.82;89.86
18755;BME280;35061;47.664;9.166;2023-04-01T02:46:47;100477.36;;;6.81;89.71
18755;BME280;35061;47.664;9.166;2023-04-01T02:49:15;100481.77;;;6.82;89.93
18755;BME280;35061;47.664;9.166;2023-04-01T02:51:43;100483.80;;;6.82;89.57
18755;BME280;35061;47.664;9.166;2023-04-01T02:54:11;100480.50;;;6.83;89.54
18755;BME280;35061;47.664;9.166;2023-04-01T02:56:39;100479.23;;;6.84;89.48
18755;BME280;35061;47.664;9.166;2023-04-01T02:59:07;100478.77;;;6.86;89.27
18755;BME280;35061;47.664;9.166;2023-04-01T03:01:35;100483.18;;;6.87;89.15
18755;BME280;35061;47.664;9.166;2023-04-01T03:04:04;100481.13;;;6.88;88.68
18755;BME280;35061;47.664;9.166;2023-04-01T03:06:32;100483.97;;;6.88;87.88
18755;BME280;35061;47.664;9.166;2023-04-01T03:09:00;100480.66;;;6.89;87.63
18755;BME280;35061;47.664;9.166;2023-04-01T03:11:27;100489.20;;;6.89;87.64
18755;BME280;35061;47.664;9.166;2023-04-01T03:13:55;100484.27;;;6.90;87.55
18755;BME280;35061;47.664;9.166;2023-04-01T03:16:23;100479.39;;;6.90;87.06
18755;BME280;35061;47.664;9.166;2023-04-01T03:18:51;100493.62;;;6.90;86.83
18755;BME280;35061;47.664;9.166;2023-04-01T03:21:22;100489.20;;;6.89;86.00
18755;BME280;35061;47.664;9.166;2023-04-01T03:23:51;100482.23;;;6.90;86.15
18755;BME280;35061;47.664;9.166;2023-04-01T03:26:19;100490.31;;;6.92;85.68
18755;BME280;35061;47.664;9.166;2023-04-01T03:28:49;100483.02;;;6.91;84.90
18755;BME280;35061;47.664;9.166;2023-04-01T03:31:17;100487.47;;;6.92;84.89
18755;BME280;35061;47.664;9.166;2023-04-01T03:33:47;100478.41;;;6.93;84.06
18755;BME280;35061;47.664;9.166;2023-04-01T03:36:15;100493.45;;;6.94;84.27
18755;BME280;35061;47.664;9.166;2023-04-01T03:38:44;100490.48;;;6.97;84.60
18755;BME280;35061;47.664;9.166;2023-04-01T03:41:14;100496.91;;;6.98;84.06
18755;BME280;35061;47.664;9.166;2023-04-01T03:43:42;100496.46;;;7.00;83.90
18755;BME280;35061;47.664;9.166;2023-04-01T03:46:10;100490.31;;;7.01;83.12
18755;BME280;35061;47.664;9.166;2023-04-01T03:48:38;100477.66;;;7.02;83.26
18755;BME280;35061;47.664;9.166;2023-04-01T03:51:07;100486.48;;;7.04;83.09
18755;BME280;35061;47.664;9.166;2023-04-01T03:53:35;100483.94;;;7.06;82.79
18755;BME280;35061;47.664;9.166;2023-04-01T03:56:05;100477.79;;;7.08;82.55
18755;BME280;35061;47.664;9.166;2023-04-01T03:58:34;100473.66;;;7.09;81.46
18755;BME280;35061;47.664;9.166;2023-04-01T04:01:02;100475.07;;;7.14;81.70
18755;BME280;35061;47.664;9.166;2023-04-01T04:03:30;100474.13;;;7.17;81.37
18755;BME280;35061;47.664;9.166;2023-04-01T04:05:59;100479.36;;;7.18;81.47
18755;BME280;35061;47.664;9.166;2023-04-01T04:08:26;100471.57;;;7.19;81.14
18755;BME280;35061;47.664;9.166;2023-04-01T04:10:55;100482.49;;;7.20;81.33
18755;BME280;35061;47.664;9.166;2023-04-01T04:13:23;100484.55;;;7.20;80.69
18755;BME280;35061;47.664;9.166;2023-04-01T04:15:51;100478.87;;;7.20;80.72
18755;BME280;35061;47.664;9.166;2023-04-01T04:18:19;100480.14;;;7.19;80.69
18755;BME280;35061;47.664;9.166;2023-04-01T04:20:47;100486.78;;;7.16;79.95
18755;BME280;35061;47.664;9.166;2023-04-01T04:23:18;100487.89;;;7.18;80.15
18755;BME280;35061;47.664;9.166;2023-04-01T04:26:04;100481.55;;;7.14;80.10
18755;BME280;35061;47.664;9.166;2023-04-01T04:28:33;100490.12;;;7.14;79.90
18755;BME280;35061;47.664;9.166;2023-04-01T04:31:01;100489.33;;;7.14;79.82
18755;BME280;35061;47.664;9.166;2023-04-01T04:33:29;100491.23;;;7.17;79.88
18755;BME280;35061;47.664;9.166;2023-04-01T04:35:58;100494.07;;;7.17;79.95
18755;BME280;35061;47.664;9.166;2023-04-01T04:38:26;100495.34;;;7.16;80.40
18755;BME280;35061;47.664;9.166;2023-04-01T04:40:55;100508.30;;;7.17;80.26
18755;BME280;35061;47.664;9.166;2023-04-01T04:43:23;100513.98;;;7.17;80.50
18755;BME280;35061;47.664;9.166;2023-04-01T04:45:51;100510.36;;;7.16;80.49
18755;BME280;35061;47.664;9.166;2023-04-01T04:48:19;100528.70;;;7.15;80.94
18755;BME280;35061;47.664;9.166;2023-04-01T04:50:49;100516.38;;;7.09;81.51
18755;BME280;35061;47.664;9.166;2023-04-01T04:53:18;100526.67;;;7.06;81.88
18755;BME280;35061;47.664;9.166;2023-04-01T04:55:48;100521.28;;;6.99;81.99
18755;BME280;35061;47.664;9.166;2023-04-01T04:58:17;100522.26;;;6.96;82.91
18755;BME280;35061;47.664;9.166;2023-04-01T05:00:45;100520.36;;;6.93;83.14
18755;BME280;35061;47.664;9.166;2023-04-01T05:03:14;100514.80;;;6.89;83.47
18755;BME280;35061;47.664;9.166;2023-04-01T05:05:51;100521.93;;;6.84;84.10
18755;BME280;35061;47.664;9.166;2023-04-01T05:08:20;100517.52;;;6.83;84.06
18755;BME280;35061;47.664;9.166;2023-04-01T05:10:47;100516.41;;;6.81;84.45
18755;BME280;35061;47.664;9.166;2023-04-01T05:13:15;100525.73;;;6.81;84.36
18755;BME280;35061;47.664;9.166;2023-04-01T05:15:43;100522.23;;;6.77;85.34
18755;BME280;35061;47.664;9.166;2023-04-01T05:18:11;100520.66;;;6.76;85.28
18755;BME280;35061;47.664;9.166;2023-04-01T05:20:39;100522.72;;;6.76;85.88
18755;BME280;35061;47.664;9.166;2023-04-01T05:23:07;100511.01;;;6.74;85.48
18755;BME280;35061;47.664;9.166;2023-04-01T05:25:37;100521.31;;;6.71;85.83
18755;BME280;35061;47.664;9.166;2023-04-01T05:28:05;100522.59;;;6.70;85.84
18755;BME280;35061;47.664;9.166;2023-04-01T05:30:33;100522.59;;;6.70;85.94
18755;BME280;35061;47.664;9.166;2023-04-01T05:33:01;100520.66;;;6.67;86.34
18755;BME280;35061;47.664;9.166;2023-04-01T05:35:29;100532.04;;;6.67;86.76
18755;BME280;35061;47.664;9.166;2023-04-01T05:37:57;100532.04;;;6.67;86.56
18755;BME280;35061;47.664;9.166;2023-04-01T05:40:25;100517.02;;;6.66;86.08
18755;BME280;35061;47.664;9.166;2023-04-01T05:42:53;100519.25;;;6.72;86.03
18755;BME280;35061;47.664;9.166;2023-04-01T05:45:22;100526.18;;;6.70;85.66
18755;BME280;35061;47.664;9.166;2023-04-01T05:47:50;100532.04;;;6.76;85.42
18755;BME280;35061;47.664;9.166;2023-04-01T05:50:18;100521.48;;;6.77;84.44
18755;BME280;35061;47.664;9.166;2023-04-01T05:52:46;100524.62;;;6.79;83.77
18755;BME280;35061;47.664;9.166;2023-04-01T05:55:14;100517.19;;;6.81;83.19
18755;BME280;35061;47.664;9.166;2023-04-01T05:57:45;100513.70;;;6.87;83.32
18755;BME280;35061;47.664;9.166;2023-04-01T06:00:14;100526.67;;;6.88;82.88
18755;BME280;35061;47.664;9.166;2023-04-01T06:02:42;100528.90;;;6.93;82.26
18755;BME280;35061;47.664;9.166;2023-04-01T06:05:20;100528.73;;;6.96;82.82
18755;BME280;35061;47.664;9.166;2023-04-01T06:07:50;100527.33;;;7.01;83.20
18755;BME280;35061;47.664;9.166;2023-04-01T06:10:44;100523.83;;;7.06;82.53
18755;BME280;35061;47.664;9.166;2023-04-01T06:19:16;100522.55;;;7.17;80.32
18755;BME280;35061;47.664;9.166;2023-04-01T06:38:56;100520.95;;;8.45;81.07
18755;BME280;35061;47.664;9.166;2023-04-01T06:47:58;100516.90;;;8.76;73.05
18755;BME280;35061;47.664;9.166;2023-04-01T06:50:44;100516.57;;;8.59;73.60
18755;BME280;35061;47.664;9.166;2023-04-01T06:56:15;100523.11;;;8.50;74.14
18755;BME280;35061;47.664;9.166;2023-04-01T06:59:04;100507.15;;;8.43;74.70
18755;BME280;35061;47.664;9.166;2023-04-01T07:01:38;100515.39;;;8.41;75.73
18755;BME280;35061;47.664;9.166;2023-04-01T07:04:15;100508.59;;;8.38;75.74
18755;BME280;35061;47.664;9.166;2023-04-01T07:06:48;100503.69;;;8.39;76.55
18755;BME280;35061;47.664;9.166;2023-04-01T07:09:24;100501.63;;;8.40;76.27
18755;BME280;35061;47.664;9.166;2023-04-01T07:11:58;100487.83;;;8.38;75.81
18755;BME280;35061;47.664;9.166;2023-04-01T07:14:39;100507.15;;;8.43;76.29
18755;BME280;35061;47.664;9.166;2023-04-01T07:17:21;100500.97;;;8.45;75.80
18755;BME280;35061;47.664;9.166;2023-04-01T07:19:56;100494.76;;;8.46;75.91
18755;BME280;35061;47.664;9.166;2023-04-01T07:22:34;100500.28;;;8.50;74.99
18755;BME280;35061;47.664;9.166;2023-04-01T07:25:31;100505.84;;;8.54;74.60
18755;BME280;35061;47.664;9.166;2023-04-01T07:28:13;100494.82;;;8.61;75.00
18755;BME280;35061;47.664;9.166;2023-04-01T07:33:39;100492.30;;;8.78;74.52
18755;BME280;35061;47.664;9.166;2023-04-01T07:38:54;100497.47;;;8.89;73.37
18755;BME280;35061;47.664;9.166;2023-04-01T07:52:31;100511.96;;;9.01;73.41
18755;BME280;35061;47.664;9.166;2023-04-01T08:09:46;100494.56;;;9.14;73.17
18755;BME280;35061;47.664;9.166;2023-04-01T08:15:00;100503.98;;;9.20;72.55
18755;BME280;35061;47.664;9.166;2023-04-01T08:20:39;100511.66;;;9.29;72.81
18755;BME280;35061;47.664;9.166;2023-04-01T08:23:14;100523.11;;;9.29;72.47
18755;BME280;35061;47.664;9.166;2023-04-01T08:25:52;100517.91;;;9.27;73.11
18755;BME280;35061;47.664;9.166;2023-04-01T08:28:32;100516.99;;;9.21;72.50
18755;BME280;35061;47.664;9.166;2023-04-01T08:31:10;100503.00;;;9.23;73.39
18755;BME280;35061;47.664;9.166;2023-04-01T08:33:41;100510.81;;;9.23;72.88
18755;BME280;35061;47.664;9.166;2023-04-01T08:36:16;100503.42;;;9.16;70.92
18755;BME280;35061;47.664;9.166;2023-04-01T08:38:51;100512.94;;;9.13;71.91
18755;BME280;35061;47.664;9.166;2023-04-01T08:53:30;100524.22;;;8.92;73.60
18755;BME280;35061;47.664;9.166;2023-04-01T08:56:26;100526.02;;;8.89;73.78
18755;BME280;35061;47.664;9.166;2023-04-01T09:07:33;100524.02;;;8.80;74.83
18755;BME280;35061;47.664;9.166;2023-04-01T09:23:54;100546.03;;;8.65;74.62
18755;BME280;35061;47.664;9.166;2023-04-01T09:35:22;100545.12;;;8.59;76.24
18755;BME280;35061;47.664;9.166;2023-04-01T09:38:09;100540.15;;;8.69;76.91
18755;BME280;35061;47.664;9.166;2023-04-01T09:49:57;100569.71;;;8.80;76.12
18755;BME280;35061;47.664;9.166;2023-04-01T09:52:38;100556.70;;;8.79;75.42
18755;BME280;35061;47.664;9.166;2023-04-01T10:32:41;100542.70;;;9.21;71.78
18755;BME280;35061;47.664;9.166;2023-04-01T10:44:01;100540.77;;;9.42;72.22
18755;BME280;35061;47.664;9.166;2023-04-01T11:01:04;100532.20;;;9.72;70.77
18755;BME280;35061;47.664;9.166;2023-04-01T11:07:55;100546.26;;;9.76;70.18
18755;BME280;35061;47.664;9.166;2023-04-01T11:29:49;100530.50;;;10.16;68.54
18755;BME280;35061;47.664;9.166;2023-04-01T11:35:33;100529.39;;;10.29;67.57
18755;BME280;35061;47.664;9.166;2023-04-01T11:46:38;100524.94;;;10.28;66.10
18755;BME280;35061;47.664;9.166;2023-04-01T11:55:04;100520.79;;;10.29;66.22
18755;BME280;35061;47.664;9.166;2023-04-01T11:57:43;100541.00;;;10.40;66.17
18755;BME280;35061;47.664;9.166;2023-04-01T12:03:15;100539.33;;;10.49;66.29
18755;BME280;35061;47.664;9.166;2023-04-01T12:06:05;100535.77;;;10.54;66.44
18755;BME280;35061;47.664;9.166;2023-04-01T12:08:50;100518.86;;;10.56;65.31
18755;BME280;35061;47.664;9.166;2023-04-01T12:17:01;100536.26;;;10.73;64.64
18755;BME280;35061;47.664;9.166;2023-04-01T12:25:48;100559.80;;;10.83;64.90
18755;BME280;35061;47.664;9.166;2023-04-01T12:28:25;100553.23;;;10.77;64.58
18755;BME280;35061;47.664;9.166;2023-04-01T12:52:11;100596.49;;;10.28;71.95
18755;BME280;35061;47.664;9.166;2023-04-01T13:00:54;100588.87;;;10.40;72.10
18755;BME280;35061;47.664;9.166;2023-04-01T13:03:43;100585.93;;;10.49;71.82
18755;BME280;35061;47.664;9.166;2023-04-01T13:17:39;100559.15;;;10.01;73.49
18755;BME280;35061;47.664;9.166;2023-04-01T13:39:57;100566.70;;;10.19;71.36
18755;BME280;35061;47.664;9.166;2023-04-01T13:42:39;100571.93;;;10.21;71.36
18755;BME280;35061;47.664;9.166;2023-04-01T13:45:27;100574.88;;;10.27;71.23
18755;BME280;35061;47.664;9.166;2023-04-01T13:51:01;100577.91;;;10.38;70.99
18755;BME280;35061;47.664;9.166;2023-04-01T14:01:53;100577.36;;;10.34;68.77
18755;BME280;35061;47.664;9.166;2023-04-01T14:04:41;100571.15;;;10.36;68.74
18755;BME280;35061;47.664;9.166;2023-04-01T14:13:30;100576.73;;;10.30;68.66
18755;BME280;35061;47.664;9.166;2023-04-01T14:16:02;100580.63;;;10.27;69.29
18755;BME280;35061;47.664;9.166;2023-04-01T14:28:43;100560.52;;;10.06;74.96
18755;BME280;35061;47.664;9.166;2023-04-01T14:31:47;100552.48;;;9.89;76.20
18755;BME280;35061;47.664;9.166;2023-04-01T14:37:07;100553.55;;;9.92;76.01
18755;BME280;35061;47.664;9.166;2023-04-01T14:45:45;100567.16;;;9.97;78.00
18755;BME280;35061;47.664;9.166;2023-04-01T14:48:31;100566.24;;;10.06;77.23
18755;BME280;35061;47.664;9.166;2023-04-01T14:54:17;100599.30;;;10.07;73.92
18755;BME280;35061;47.664;9.166;2023-04-01T14:57:01;100594.56;;;10.04;74.20
18755;BME280;35061;47.664;9.166;2023-04-01T14:59:29;100587.20;;;9.97;73.78
18755;BME280;35061;47.664;9.166;2023-04-01T15:04:56;100582.85;;;10.02;72.98
18755;BME280;35061;47.664;9.166;2023-04-01T15:16:39;100580.17;;;10.13;72.70
18755;BME280;35061;47.664;9.166;2023-04-01T15:22:13;100581.02;;;10.19;73.08
18755;BME280;35061;47.664;9.166;2023-04-01T15:38:46;100595.38;;;9.89;72.71
18755;BME280;35061;47.664;9.166;2023-04-01T15:47:33;100593.12;;;9.78;72.87
18755;BME280;35061;47.664;9.166;2023-04-01T15:56:22;100588.58;;;9.72;72.71
18755;BME280;35061;47.664;9.166;2023-04-01T15:59:14;100585.05;;;9.62;72.48
18755;BME280;35061;47.664;9.166;2023-04-01T16:02:08;100577.52;;;9.64;73.04
18755;BME280;35061;47.664;9.166;2023-04-01T16:04:46;100564.12;;;9.71;73.68
18755;BME280;35061;47.664;9.166;2023-04-01T16:07:38;100565.00;;;9.77;73.35
18755;BME280;35061;47.664;9.166;2023-04-01T16:10:26;100563.76;;;9.78;72.56
18755;BME280;35061;47.664;9.166;2023-04-01T16:13:28;100577.33;;;9.83;72.32
18755;BME280;35061;47.664;9.166;2023-04-01T16:16:23;100578.41;;;9.86;71.75
18755;BME280;35061;47.664;9.166;2023-04-01T16:19:12;100574.74;;;9.85;70.88
18755;BME280;35061;47.664;9.166;2023-04-01T16:21:48;100585.53;;;9.90;71.64
18755;BME280;35061;47.664;9.166;2023-04-01T16:27:20;100588.38;;;9.90;70.97
18755;BME280;35061;47.664;9.166;2023-04-01T16:33:20;100587.01;;;9.86;70.68
18755;BME280;35061;47.664;9.166;2023-04-01T16:35:59;100593.48;;;9.86;69.90
18755;BME280;35061;47.664;9.166;2023-04-01T16:38:45;100590.15;;;9.88;69.88
18755;BME280;35061;47.664;9.166;2023-04-01T16:41:20;100593.58;;;9.92;70.37
18755;BME280;35061;47.664;9.166;2023-04-01T16:44:23;100590.73;;;9.92;70.19
18755;BME280;35061;47.664;9.166;2023-04-01T16:47:22;100586.61;;;9.93;69.73
18755;BME280;35061;47.664;9.166;2023-04-01T16:50:22;100597.73;;;9.91;69.79
18755;BME280;35061;47.664;9.166;2023-04-01T16:55:42;100596.69;;;9.88;69.94
18755;BME280;35061;47.664;9.166;2023-04-01T16:58:27;100595.38;;;9.89;69.90
18755;BME280;35061;47.664;9.166;2023-04-01T17:01:04;100600.80;;;9.87;70.30
18755;BME280;35061;47.664;9.166;2023-04-01T17:03:38;100610.45;;;9.90;70.62
18755;BME280;35061;47.664;9.166;2023-04-01T17:09:18;100615.00;;;9.97;70.77
18755;BME280;35061;47.664;9.166;2023-04-01T17:22:44;100621.41;;;9.91;71.70
18755;BME280;35061;47.664;9.166;2023-04-01T17:25:20;100622.91;;;9.87;71.95
18755;BME280;35061;47.664;9.166;2023-04-01T17:33:47;100645.21;;;9.83;72.43
18755;BME280;35061;47.664;9.166;2023-04-01T17:37:22;100641.55;;;9.82;72.42
18755;BME280;35061;47.664;9.166;2023-04-01T17:42:34;100638.09;;;9.78;72.69
18755;BME280;35061;47.664;9.166;2023-04-01T17:50:42;100647.73;;;9.66;73.01
18755;BME280;35061;47.664;9.166;2023-04-01T17:53:29;100657.02;;;9.60;73.19
18755;BME280;35061;47.664;9.166;2023-04-01T17:59:00;100655.12;;;9.57;73.30
18755;BME280;35061;47.664;9.166;2023-04-01T18:01:58;100646.75;;;9.54;73.36
18755;BME280;35061;47.664;9.166;2023-04-01T18:05:00;100649.79;;;9.50;73.25
18755;BME280;35061;47.664;9.166;2023-04-01T18:07:45;100653.02;;;9.43;73.07
18755;BME280;35061;47.664;9.166;2023-04-01T18:16:35;100661.66;;;9.33;73.35
18755;BME280;35061;47.664;9.166;2023-04-01T18:22:10;100665.03;;;9.32;73.54
18755;BME280;35061;47.664;9.166;2023-04-01T18:27:22;100664.31;;;9.22;73.75
18755;BME280;35061;47.664;9.166;2023-04-01T18:30:21;100656.88;;;9.15;74.32
18755;BME280;35061;47.664;9.166;2023-04-01T18:38:39;100671.24;;;9.06;74.79
18755;BME280;35061;47.664;9.166;2023-04-01T18:47:05;100670.59;;;8.87;75.43
18755;BME280;35061;47.664;9.166;2023-04-01T18:49:48;100669.64;;;8.80;75.39
18755;BME280;35061;47.664;9.166;2023-04-01T18:52:27;100680.30;;;8.80;75.45
18755;BME280;35061;47.664;9.166;2023-04-01T18:57:49;100684.29;;;8.73;75.69
18755;BME280;35061;47.664;9.166;2023-04-01T19:00:25;100690.17;;;8.70;75.73
18755;BME280;35061;47.664;9.166;2023-04-01T19:03:21;100692.73;;;8.68;76.03
18755;BME280;35061;47.664;9.166;2023-04-01T19:05:52;100700.18;;;8.65;76.32
18755;BME280;35061;47.664;9.166;2023-04-01T19:08:34;100700.67;;;8.63;75.93
18755;BME280;35061;47.664;9.166;2023-04-01T19:11:22;100711.17;;;8.57;76.80
18755;BME280;35061;47.664;9.166;2023-04-01T19:19:33;100717.19;;;8.50;76.43
18755;BME280;35061;47.664;9.166;2023-04-01T19:25:20;100722.58;;;8.48;76.62
18755;BME280;35061;47.664;9.166;2023-04-01T19:27:53;100726.73;;;8.47;76.55
18755;BME280;35061;47.664;9.166;2023-04-01T19:35:55;100725.78;;;8.41;76.30
18755;BME280;35061;47.664;9.166;2023-04-01T19:38:38;100734.84;;;8.39;76.43
18755;BME280;35061;47.664;9.166;2023-04-01T19:44:04;100732.00;;;8.39;76.22
18755;BME280;35061;47.664;9.166;2023-04-01T19:46:48;100732.91;;;8.36;76.23
18755;BME280;35061;47.664;9.166;2023-04-01T19:52:33;100738.63;;;8.36;76.39
18755;BME280;35061;47.664;9.166;2023-04-01T19:55:50;100735.46;;;8.34;76.29
18755;BME280;35061;47.664;9.166;2023-04-01T19:58:39;100733.90;;;8.33;76.37
18755;BME280;35061;47.664;9.166;2023-04-01T20:01:13;100733.60;;;8.31;76.47
18755;BME280;35061;47.664;9.166;2023-04-01T20:03:50;100740.08;;;8.31;76.33
18755;BME280;35061;47.664;9.166;2023-04-01T20:06:44;100733.60;;;8.31;76.52
18755;BME280;35061;47.664;9.166;2023-04-01T20:14:53;100749.59;;;8.28;76.43
18755;BME280;35061;47.664;9.166;2023-04-01T20:19:59;100751.98;;;8.30;76.35
18755;BME280;35061;47.664;9.166;2023-04-01T20:22:37;100757.05;;;8.26;76.69
18755;BME280;35061;47.664;9.166;2023-04-01T20:25:19;100746.13;;;8.24;76.77
18755;BME280;35061;47.664;9.166;2023-04-01T20:31:18;100744.52;;;8.23;76.80
18755;BME280;35061;47.664;9.166;2023-04-01T20:39:40;100754.56;;;8.18;77.11
18755;BME280;35061;47.664;9.166;2023-04-01T20:42:27;100755.80;;;8.17;77.50
18755;BME280;35061;47.664;9.166;2023-04-01T20:45:38;100768.46;;;8.16;77.76
18755;BME280;35061;47.664;9.166;2023-04-01T20:51:03;100767.87;;;8.12;77.97
18755;BME280;35061;47.664;9.166;2023-04-01T20:53:36;100768.82;;;8.09;78.22
18755;BME280;35061;47.664;9.166;2023-04-01T21:02:03;100783.70;;;8.04;78.36
18755;BME280;35061;47.664;9.166;2023-04-01T21:10:34;100797.66;;;8.02;79.04
18755;BME280;35061;47.664;9.166;2023-04-01T21:21:46;100804.62;;;7.91;79.71
18755;BME280;35061;47.664;9.166;2023-04-01T21:24:35;100801.45;;;7.89;79.81
18755;BME280;35061;47.664;9.166;2023-04-01T21:27:52;100815.41;;;7.87;79.78
18755;BME280;35061;47.664;9.166;2023-04-01T21:30:29;100806.52;;;7.85;79.89
18755;BME280;35061;47.664;9.166;2023-04-01T21:33:31;100822.05;;;7.84;79.67
18755;BME280;35061;47.664;9.166;2023-04-01T22:04:00;100833.80;;;7.77;79.75
18755;BME280;35061;47.664;9.166;2023-04-01T22:06:34;100824.12;;;7.74;79.66
18755;BME280;35061;47.664;9.166;2023-04-01T22:17:35;100831.83;;;7.64;79.82
18755;BME280;35061;47.664;9.166;2023-04-01T22:20:22;100845.77;;;7.62;79.66
18755;BME280;35061;47.664;9.166;2023-04-01T22:23:01;100839.45;;;7.58;80.05
18755;BME280;35061;47.664;9.166;2023-04-01T22:28:23;100842.72;;;7.47;80.35
18755;BME280;35061;47.664;9.166;2023-04-01T22:31:00;100856.20;;;7.47;79.96
18755;BME280;35061;47.664;9.166;2023-04-01T22:33:37;100853.52;;;7.43;79.95
18755;BME280;35061;47.664;9.166;2023-04-01T22:50:41;100883.04;;;7.27;79.07
18755;BME280;35061;47.664;9.166;2023-04-01T22:55:42;100878.16;;;7.28;78.73
18755;BME280;35061;47.664;9.166;2023-04-01T22:58:30;100881.77;;;7.28;78.76
18755;BME280;35061;47.664;9.166;2023-04-01T23:01:03;100874.80;;;7.29;78.47
18755;BME280;35061;47.664;9.166;2023-04-01T23:03:41;100884.64;;;7.28;78.26
18755;BME280;35061;47.664;9.166;2023-04-01T23:06:22;100877.97;;;7.31;78.27
18755;BME280;35061;47.664;9.166;2023-04-01T23:11:50;100885.13;;;7.36;78.38
18755;BME280;35061;47.664;9.166;2023-04-01T23:14:28;100889.91;;;7.39;78.25
18755;BME280;35061;47.664;9.166;2023-04-01T23:19:52;100893.87;;;7.42;77.99
18755;BME280;35061;47.664;9.166;2023-04-01T23:22:43;100893.87;;;7.42;77.76
18755;BME280;35061;47.664;9.166;2023-04-01T23:25:22;100888.14;;;7.42;77.44
18755;BME280;35061;47.664;9.166;2023-04-01T23:28:17;100883.56;;;7.44;77.67